Rockford, IL (61108)

9:46 PM CDT on July 26, 2016 (GMT -0500)
Rockford Plaza | | Change Station

Elev 787 ft 42.27 °N, 89.06 °W | Updated 443 days ago

Clear
Clear
70 °F
Feels Like 70 °F
N
0
Wind Variable Wind from SW
Gusts mph

Today
High -- | Low -- °F
--% Chance of Precip.
Yesterday
High -- | Low -- °F
Precip. -- in
Pressure 30.01 in
Visibility 10.0 miles
Clouds Clear
Dew Point 66 °F
Humidity 85%
Rainfall in
Snow Depth Not available.
5:43 AM 8:21 PM
Waning Gibbous, 48% visible
METAR KRFD 270154Z 00000KT 10SM CLR 27/18 A3003 RMK AO2 SLP162 T02670183
Pressure 30.01 in
Visibility 10.0 miles
Clouds Clear
Dew Point 66 °F
Humidity 85%
Rainfall in
Snow Depth Not available.
5:43 AM 8:21 PM
Waning Gibbous, 48% visible
METAR KRFD 270154Z 00000KT 10SM CLR 27/18 A3003 RMK AO2 SLP162 T02670183

10-Day Weather Forecast

Almanac

Astronomy

Jul. 26, 2016 Rise Set
Actual Time
Civil Twilight
Nautical Twilight
Astronomical Twilight
Moon
Length of Visible Light
Length of Day
Tomorrow will be .
, % of the Moon is Illuminated

Today's Extremes

State Highs State Lows

Community

WunderPhotos

Upload Photos

1,927,784 photos uploaded!

WunderBlog® & News

Nearby

Air Quality

  Air Quality AQ Index Pollutant
Not available.

Snow Depth

Station Depth Elevation

Earthquake Activity

City Distance Mag. Time & Date
Minimum magnitude displayed is 2.5.

Coastal Water Temperatures

Place Temperature

Stations

Nearby Weather Stations

Station Location Temp. Windchill Dew Point Humidity Wind Precip. Elev Updated Type
                   

Watches & Warnings

There are currently no watches in effect.